Time;durP1;ratioP1;P1;durP2;ratioP2;P2;SDS_P1;SDS_P2;PMS_P1;PMS_P2;Temp;Humidity;BMP_temperature;BMP_pressure;BME280_temperature;BME280_humidity;BME280_pressure;Samples;Min_cycle;Max_cycle;Signal;HPM_P1;HPM_P2
2021/07/22 00:00:49;;;;;;;;;;;;;;;25.13;66.13;99840.13;2066769;28;19921;-70
2021/07/22 00:01:49;;;;;;;;;;;;;;;25.13;66.28;99834.63;2068783;28;20316;-70
2021/07/22 00:02:50;;;;;;;;;;;;;;;25.14;66.18;99841.88;2067153;28;20421;-70
2021/07/22 00:03:50;;;;;;;;;;;;;;;25.13;66.11;99837.38;2067331;28;20462;-70
2021/07/22 00:04:50;;;;;;;;;;;;;;;25.13;66.26;99837.38;2069005;28;19924;-70
2021/07/22 00:05:51;;;;;;;;;;;;;;;25.14;66.28;99838.25;2065926;28;19979;-70
2021/07/22 00:06:51;;;;;;;;;;;;;;;25.14;66.21;99836.34;2062905;28;20560;-70
2021/07/22 00:07:51;;;;;;;;;;;;;;;25.13;66.13;99837.38;2066069;28;20576;-71
2021/07/22 00:08:51;;;;;;;;;;;;;;;25.14;66.35;99838.25;2067993;28;20401;-70
2021/07/22 00:09:52;;;;;;;;;;;;;;;25.12;66.23;99832.91;2066116;28;19920;-70
2021/07/22 00:10:52;;;;;;;;;;;;;;;25.13;66.13;99837.38;2065346;28;20069;-70
2021/07/22 00:11:52;;;;;;;;;;;;;;;25.13;66.37;99834.63;2068018;28;19948;-70
2021/07/22 00:12:53;;;;;;;;;;;;;;;25.13;66.07;99833.78;2068073;28;19916;-71
2021/07/22 00:13:53;;;;;;;;;;;;;;;25.14;66.20;99833.59;2068687;28;19924;-70
2021/07/22 00:14:53;;;;;;;;;;;;;;;25.13;66.21;99831.84;2066459;28;19925;-70
2021/07/22 00:15:54;;;;;;;;;;;;;;;25.13;66.17;99828.25;2067092;28;20010;-70
2021/07/22 00:16:54;;;;;;;;;;;;;;;25.13;66.35;99834.63;2068011;28;19917;-70
2021/07/22 00:17:54;;;;;;;;;;;;;;;25.12;66.33;99835.69;2066946;28;19921;-70
2021/07/22 00:18:54;;;;;;;;;;;;;;;25.12;66.12;99835.69;2068282;28;20376;-70
2021/07/22 00:19:55;;;;;;;;;;;;;;;25.12;66.10;99837.59;2067245;28;19913;-70
2021/07/22 00:20:55;;;;;;;;;;;;;;;25.13;66.19;99839.28;2067198;28;20454;-70
2021/07/22 00:21:56;;;;;;;;;;;;;;;25.13;66.29;99828.25;2068307;28;19960;-70
2021/07/22 00:22:56;;;;;;;;;;;;;;;25.12;66.28;99834.84;2065927;28;19909;-70
2021/07/22 00:23:57;;;;;;;;;;;;;;;25.12;66.25;99835.69;2068410;28;19909;-70
2021/07/22 00:24:58;;;;;;;;;;;;;;;25.11;66.33;99831.22;2066573;28;19955;-70
2021/07/22 00:26:02;;;;;;;;;;;;;;;25.12;66.05;99835.69;2066831;28;19924;-70
2021/07/22 00:27:02;;;;;;;;;;;;;;;25.12;66.31;99830.16;2067073;28;19926;-70
2021/07/22 00:28:03;;;;;;;;;;;;;;;25.11;66.29;99834.00;2066993;28;19964;-70
2021/07/22 00:29:03;;;;;;;;;;;;;;;25.11;66.35;99834.00;2068912;28;20295;-71
2021/07/22 00:30:03;;;;;;;;;;;;;;;25.12;66.48;99837.59;2067014;28;19924;-70
2021/07/22 00:31:05;;;;;;;;;;;;;;;25.11;66.21;99836.75;2067773;28;20690;-70
2021/07/22 00:32:05;;;;;;;;;;;;;;;25.12;66.28;99838.44;2067467;28;19917;-70
2021/07/22 00:33:06;;;;;;;;;;;;;;;25.12;66.29;99835.69;2066284;28;19921;-70
2021/07/22 00:34:06;;;;;;;;;;;;;;;25.11;66.27;99831.22;2069008;28;19917;-70
2021/07/22 00:35:07;;;;;;;;;;;;;;;25.12;66.25;99829.31;2067142;28;19913;-70
2021/07/22 00:36:10;;;;;;;;;;;;;;;25.12;66.07;99832.91;2068773;28;19913;-70
2021/07/22 00:37:10;;;;;;;;;;;;;;;25.12;66.26;99821.03;2066285;28;20438;-70
2021/07/22 00:38:10;;;;;;;;;;;;;;;25.11;66.30;99825.72;2066432;28;20380;-70
2021/07/22 00:39:14;;;;;;;;;;;;;;;25.11;66.31;99819.31;2068727;28;19917;-70
2021/07/22 00:40:14;;;;;;;;;;;;;;;25.11;66.14;99825.72;2067170;28;19940;-70
2021/07/22 00:41:15;;;;;;;;;;;;;;;25.11;66.31;99831.22;2069001;28;19951;-70
2021/07/22 00:42:15;;;;;;;;;;;;;;;25.11;66.19;99825.72;2066598;28;20348;-70
2021/07/22 00:43:15;;;;;;;;;;;;;;;25.11;66.27;99831.22;2067056;28;19932;-70
2021/07/22 00:44:16;;;;;;;;;;;;;;;25.10;66.30;99826.75;2067998;28;19948;-70
2021/07/22 00:45:16;;;;;;;;;;;;;;;25.11;66.25;99825.72;2067924;28;20521;-70
2021/07/22 00:46:16;;;;;;;;;;;;;;;25.10;66.33;99829.50;2068586;28;20061;-70
2021/07/22 00:47:18;;;;;;;;;;;;;;;25.11;66.22;99822.06;2066840;28;19909;-70
2021/07/22 00:48:18;;;;;;;;;;;;;;;25.11;66.26;99830.34;2067941;28;19905;-70
2021/07/22 00:49:18;;;;;;;;;;;;;;;25.10;66.26;99823.13;2068366;28;19909;-70
2021/07/22 00:50:19;;;;;;;;;;;;;;;25.10;66.26;99821.22;2065692;28;19917;-70
2021/07/22 00:51:19;;;;;;;;;;;;;;;25.10;66.06;99823.97;2068866;28;19917;-70
2021/07/22 00:52:19;;;;;;;;;;;;;;;25.11;66.24;99820.19;2066766;28;19909;-70
2021/07/22 00:53:19;;;;;;;;;;;;;;;25.10;66.08;99818.47;2068823;28;20712;-70
2021/07/22 00:54:21;;;;;;;;;;;;;;;25.10;66.06;99818.47;2066082;28;19923;-70
2021/07/22 00:55:22;;;;;;;;;;;;;;;25.10;66.12;99828.66;2065844;28;19924;-70
2021/07/22 00:56:22;;;;;;;;;;;;;;;25.10;66.23;99823.97;2068392;28;20373;-70
2021/07/22 00:57:23;;;;;;;;;;;;;;;25.10;66.23;99815.72;2067695;28;20283;-70
2021/07/22 00:58:23;;;;;;;;;;;;;;;25.10;66.27;99818.47;2070669;28;20380;-70
2021/07/22 00:59:23;;;;;;;;;;;;;;;25.09;66.10;99819.53;2068055;28;20477;-70
2021/07/22 01:00:24;;;;;;;;;;;;;;;25.10;66.25;99812.97;2068972;28;19917;-70
2021/07/22 01:01:24;;;;;;;;;;;;;;;25.11;66.33;99816.56;2061972;28;20273;-70
2021/07/22 01:02:24;;;;;;;;;;;;;;;25.10;66.26;99818.47;2063305;28;19921;-70
2021/07/22 01:03:24;;;;;;;;;;;;;;;25.09;66.32;99816.78;2069338;28;19968;-70
2021/07/22 01:04:25;;;;;;;;;;;;;;;25.10;66.27;99818.47;2068239;28;19913;-71
2021/07/22 01:05:25;;;;;;;;;;;;;;;25.11;66.19;99820.19;2069377;28;19939;-68
2021/07/22 01:06:25;;;;;;;;;;;;;;;25.10;66.17;99812.97;2069095;28;19909;-68
2021/07/22 01:07:26;;;;;;;;;;;;;;;25.10;66.18;99817.63;2068367;28;19999;-69
2021/07/22 01:08:26;;;;;;;;;;;;;;;25.10;66.09;99814.88;2070360;28;20408;-69
2021/07/22 01:09:26;;;;;;;;;;;;;;;25.10;66.31;99812.97;2067851;28;20006;-69
2021/07/22 01:10:26;;;;;;;;;;;;;;;25.10;66.25;99814.88;2070430;28;19924;-69
2021/07/22 01:11:27;;;;;;;;;;;;;;;25.09;66.16;99816.78;2068878;28;20375;-69
2021/07/22 01:12:27;;;;;;;;;;;;;;;25.10;66.17;99817.63;2068320;28;19924;-69
2021/07/22 01:13:27;;;;;;;;;;;;;;;25.09;66.28;99819.53;2070385;28;19972;-69
2021/07/22 01:14:27;;;;;;;;;;;;;;;25.08;66.25;99809.53;2069785;28;20291;-69
2021/07/22 01:15:28;;;;;;;;;;;;;;;25.09;66.31;99816.78;2077689;28;20386;-69
2021/07/22 01:16:29;;;;;;;;;;;;;;;25.10;66.14;99814.88;2068987;28;19920;-69
2021/07/22 01:17:29;;;;;;;;;;;;;;;25.09;66.06;99804.91;2067887;28;19979;-69
2021/07/22 01:18:29;;;;;;;;;;;;;;;25.09;66.04;99811.25;2070169;28;19917;-69
2021/07/22 01:19:29;;;;;;;;;;;;;;;25.09;66.11;99811.25;2065773;28;19925;-69
2021/07/22 01:20:30;;;;;;;;;;;;;;;25.08;66.22;99809.53;2068689;28;19917;-69
2021/07/22 01:21:30;;;;;;;;;;;;;;;25.08;66.27;99809.53;2069891;28;19967;-69
2021/07/22 01:22:30;;;;;;;;;;;;;;;25.08;66.12;99808.69;2067663;28;20705;-69
2021/07/22 01:23:31;;;;;;;;;;;;;;;25.09;66.09;99810.41;2068197;28;19987;-69
2021/07/22 01:24:31;;;;;;;;;;;;;;;25.08;66.22;99809.53;2069325;28;19924;-70
2021/07/22 01:25:31;;;;;;;;;;;;;;;25.08;66.17;99812.28;2068233;28;19917;-70
2021/07/22 01:26:32;;;;;;;;;;;;;;;25.08;66.27;99812.28;2069832;28;19917;-70
2021/07/22 01:27:32;;;;;;;;;;;;;;;25.08;66.21;99812.28;2067551;28;19929;-70
2021/07/22 01:28:32;;;;;;;;;;;;;;;25.08;66.18;99815.03;2069552;28;20649;-70
2021/07/22 01:29:33;;;;;;;;;;;;;;;25.08;66.16;99808.69;2068508;28;19917;-70
2021/07/22 01:30:33;;;;;;;;;;;;;;;25.08;66.16;99809.53;2067092;28;19917;-70
2021/07/22 01:31:33;;;;;;;;;;;;;;;25.08;66.05;99811.44;2070195;28;19921;-70
2021/07/22 01:32:34;;;;;;;;;;;;;;;25.09;66.13;99810.41;2067655;28;19917;-70
2021/07/22 01:33:34;;;;;;;;;;;;;;;25.08;66.22;99804.00;2077582;28;19916;-70
2021/07/22 01:34:34;;;;;;;;;;;;;;;25.07;66.21;99805.09;2075924;28;19925;-70
2021/07/22 01:35:35;;;;;;;;;;;;;;;25.08;66.27;99808.69;2069496;28;19959;-70
2021/07/22 01:36:35;;;;;;;;;;;;;;;25.07;66.10;99807.84;2068293;28;19924;-70
2021/07/22 01:37:37;;;;;;;;;;;;;;;25.08;66.28;99806.78;2068400;28;20022;-70
2021/07/22 01:38:37;;;;;;;;;;;;;;;25.08;66.22;99804.00;2068378;28;19944;-70
2021/07/22 01:39:38;;;;;;;;;;;;;;;25.07;66.23;99813.34;2070078;28;19917;-70
2021/07/22 01:40:38;;;;;;;;;;;;;;;25.07;66.15;99802.31;2067883;28;19935;-70
2021/07/22 01:41:39;;;;;;;;;;;;;;;25.08;66.18;99816.97;2068363;28;19917;-70
2021/07/22 01:42:40;;;;;;;;;;;;;;;25.06;66.11;99811.63;2069839;28;19928;-70
2021/07/22 01:43:40;;;;;;;;;;;;;;;25.08;66.06;99814.19;2068275;28;19913;-70
2021/07/22 01:44:41;;;;;;;;;;;;;;;25.07;66.22;99807.84;2070279;28;20857;-70
2021/07/22 01:45:41;;;;;;;;;;;;;;;25.08;66.10;99812.28;2066121;28;20564;-70
2021/07/22 01:46:41;;;;;;;;;;;;;;;25.07;66.05;99813.34;2068122;28;19920;-70
2021/07/22 01:47:41;;;;;;;;;;;;;;;25.07;66.15;99813.34;2062653;28;19980;-70
2021/07/22 01:48:42;;;;;;;;;;;;;;;25.06;66.14;99806.13;2064516;28;19979;-70
2021/07/22 01:49:42;;;;;;;;;;;;;;;25.07;66.06;99809.75;2069703;28;20411;-70
2021/07/22 01:50:42;;;;;;;;;;;;;;;25.08;66.00;99814.19;2068124;28;20288;-70
2021/07/22 01:51:43;;;;;;;;;;;;;;;25.07;66.20;99809.75;2069227;28;19916;-70
2021/07/22 01:52:43;;;;;;;;;;;;;;;25.08;66.19;99809.53;2068952;28;19992;-70
2021/07/22 01:53:43;;;;;;;;;;;;;;;25.07;66.00;99810.59;2068918;28;19960;-70
2021/07/22 01:54:43;;;;;;;;;;;;;;;25.06;66.30;99808.03;2070063;28;19920;-70
2021/07/22 01:55:45;;;;;;;;;;;;;;;25.06;66.08;99811.63;2068219;28;19925;-69
2021/07/22 01:56:45;;;;;;;;;;;;;;;25.07;66.27;99804.22;2069653;28;19919;-70
2021/07/22 01:57:47;;;;;;;;;;;;;;;25.06;66.01;99808.88;2068205;28;19924;-70
2021/07/22 01:58:47;;;;;;;;;;;;;;;25.06;66.03;99811.63;2067805;28;19952;-70
2021/07/22 01:59:48;;;;;;;;;;;;;;;25.05;66.12;99809.94;2070135;28;19913;-70
2021/07/22 02:00:48;;;;;;;;;;;;;;;25.06;66.15;99810.78;2067696;28;19928;-70
2021/07/22 02:01:49;;;;;;;;;;;;;;;25.05;66.07;99804.41;2069643;28;19925;-70
2021/07/22 02:02:49;;;;;;;;;;;;;;;25.05;66.07;99809.94;2068664;28;19917;-70
2021/07/22 02:03:49;;;;;;;;;;;;;;;25.06;66.09;99808.03;2068220;28;19923;-69
2021/07/22 02:04:49;;;;;;;;;;;;;;;25.06;65.98;99806.13;2069792;28;19952;-70
2021/07/22 02:05:50;;;;;;;;;;;;;;;25.07;66.06;99812.50;2067838;28;19994;-70
2021/07/22 02:06:50;;;;;;;;;;;;;;;25.06;66.33;99805.25;2069539;28;20383;-70
2021/07/22 02:07:51;;;;;;;;;;;;;;;25.06;66.06;99808.88;2068104;28;19944;-70
2021/07/22 02:08:51;;;;;;;;;;;;;;;25.06;66.13;99810.78;2066873;28;20359;-70
2021/07/22 02:09:51;;;;;;;;;;;;;;;25.05;66.07;99809.09;2068734;28;19967;-70
2021/07/22 02:10:52;;;;;;;;;;;;;;;25.06;66.12;99810.78;2068610;28;19916;-70
2021/07/22 02:11:53;;;;;;;;;;;;;;;25.05;66.23;99812.69;2069071;28;19913;-70
2021/07/22 02:12:53;;;;;;;;;;;;;;;25.05;66.22;99812.69;2068637;28;20005;-70
2021/07/22 02:13:53;;;;;;;;;;;;;;;25.05;66.13;99809.94;2068377;28;19943;-70
2021/07/22 02:14:53;;;;;;;;;;;;;;;25.05;65.91;99812.69;2068145;28;19917;-70
2021/07/22 02:15:54;;;;;;;;;;;;;;;25.05;66.05;99809.94;2067248;28;19917;-70
2021/07/22 02:16:54;;;;;;;;;;;;;;;25.04;66.27;99811.00;2069823;28;19917;-70
2021/07/22 02:17:54;;;;;;;;;;;;;;;25.06;65.97;99814.38;2066907;28;19917;-70
2021/07/22 02:18:55;;;;;;;;;;;;;;;25.05;65.91;99818.22;2067773;28;19917;-70
2021/07/22 02:19:55;;;;;;;;;;;;;;;25.05;65.89;99815.44;2068463;28;20368;-70
2021/07/22 02:20:55;;;;;;;;;;;;;;;25.05;66.17;99818.22;2064386;28;20451;-70
2021/07/22 02:21:56;;;;;;;;;;;;;;;25.05;65.91;99823.72;2069660;28;20360;-70
2021/07/22 02:22:56;;;;;;;;;;;;;;;25.04;65.94;99813.75;2067957;28;19917;-70
2021/07/22 02:23:56;;;;;;;;;;;;;;;25.04;66.29;99819.28;2069171;28;20307;-70
2021/07/22 02:24:56;;;;;;;;;;;;;;;25.05;65.92;99820.13;2067762;28;20898;-70
2021/07/22 02:25:57;;;;;;;;;;;;;;;25.04;65.99;99819.28;2067655;28;20320;-71
2021/07/22 02:27:00;;;;;;;;;;;;;;;25.05;65.89;99815.44;2069053;28;20295;-70
2021/07/22 02:28:00;;;;;;;;;;;;;;;25.04;66.10;99808.25;2067962;28;19985;-70
2021/07/22 02:29:00;;;;;;;;;;;;;;;25.04;65.83;99813.75;2069951;28;19921;-70
2021/07/22 02:30:03;;;;;;;;;;;;;;;25.03;65.80;99815.63;2068569;28;19921;-70
2021/07/22 02:31:03;;;;;;;;;;;;;;;25.04;65.84;99819.28;2068005;28;19921;-70
2021/07/22 02:32:04;;;;;;;;;;;;;;;25.05;66.01;99820.13;2068951;28;20012;-70
2021/07/22 02:33:05;;;;;;;;;;;;;;;25.04;66.08;99819.28;2067586;28;19987;-70
2021/07/22 02:34:05;;;;;;;;;;;;;;;25.04;65.92;99816.50;2068644;28;19917;-70
2021/07/22 02:35:05;;;;;;;;;;;;;;;25.03;66.10;99823.91;2066224;28;19918;-70
2021/07/22 02:36:06;;;;;;;;;;;;;;;25.03;65.86;99820.31;2067202;28;19960;-70
2021/07/22 02:37:08;;;;;;;;;;;;;;;25.04;65.76;99827.53;2068300;28;19917;-70
2021/07/22 02:38:08;;;;;;;;;;;;;;;25.03;65.99;99828.56;2066976;28;19921;-70
2021/07/22 02:39:08;;;;;;;;;;;;;;;25.03;65.94;99823.06;2064932;28;20518;-70
2021/07/22 02:40:08;;;;;;;;;;;;;;;25.04;65.86;99827.53;2068811;28;19932;-70
2021/07/22 02:41:09;;;;;;;;;;;;;;;25.03;66.00;99829.41;2068578;28;19925;-70
2021/07/22 02:42:09;;;;;;;;;;;;;;;25.04;65.74;99830.31;2069178;28;19991;-70
2021/07/22 02:43:11;;;;;;;;;;;;;;;25.04;65.85;99824.78;2067623;28;19917;-69
2021/07/22 02:44:11;;;;;;;;;;;;;;;25.04;65.90;99827.53;2068198;28;20386;-70
2021/07/22 02:45:11;;;;;;;;;;;;;;;25.04;65.83;99824.78;2067724;28;19917;-70
2021/07/22 02:46:12;;;;;;;;;;;;;;;25.03;65.76;99825.81;2067052;28;20414;-70
2021/07/22 02:47:12;;;;;;;;;;;;;;;25.02;65.84;99822.22;2068521;28;20437;-70
2021/07/22 02:48:12;;;;;;;;;;;;;;;25.03;65.86;99828.56;2069511;28;19917;-70
2021/07/22 02:49:13;;;;;;;;;;;;;;;25.03;66.01;99823.06;2067253;28;19917;-70
2021/07/22 02:50:13;;;;;;;;;;;;;;;25.03;65.99;99817.53;2068948;28;19913;-70
2021/07/22 02:51:13;;;;;;;;;;;;;;;25.02;66.04;99819.44;2068599;28;19970;-70
2021/07/22 02:52:13;;;;;;;;;;;;;;;25.03;65.99;99820.31;2067508;28;19917;-70
2021/07/22 02:53:14;;;;;;;;;;;;;;;25.03;65.98;99817.53;2070049;28;19944;-70
2021/07/22 02:54:14;;;;;;;;;;;;;;;25.02;65.98;99816.69;2067250;28;19917;-70
2021/07/22 02:55:14;;;;;;;;;;;;;;;25.02;66.08;99816.69;2069549;28;20578;-70
2021/07/22 02:56:15;;;;;;;;;;;;;;;25.02;66.01;99813.09;2066572;28;19909;-70
2021/07/22 02:57:15;;;;;;;;;;;;;;;25.02;65.98;99824.97;2065846;28;19909;-69
2021/07/22 02:58:15;;;;;;;;;;;;;;;25.02;65.73;99824.13;2067504;28;19916;-70
2021/07/22 02:59:15;;;;;;;;;;;;;;;25.02;65.81;99816.69;2067657;28;19913;-70
2021/07/22 03:00:16;;;;;;;;;;;;;;;25.02;65.75;99827.72;2069212;28;19935;-70
2021/07/22 03:01:16;;;;;;;;;;;;;;;25.02;65.94;99829.63;2067034;28;19932;-70
2021/07/22 03:02:17;;;;;;;;;;;;;;;25.03;65.90;99823.06;2067657;28;19925;-70
2021/07/22 03:03:17;;;;;;;;;;;;;;;25.01;65.72;99820.53;2068541;28;19917;-70
2021/07/22 03:04:17;;;;;;;;;;;;;;;25.01;65.89;99820.53;2066240;28;19916;-70
2021/07/22 03:05:17;;;;;;;;;;;;;;;25.01;65.97;99819.63;2069417;28;19928;-70
2021/07/22 03:06:18;;;;;;;;;;;;;;;25.01;65.79;99825.16;2067008;28;19980;-70
2021/07/22 03:07:18;;;;;;;;;;;;;;;25.00;65.86;99820.69;2067819;28;19920;-70
2021/07/22 03:08:21;;;;;;;;;;;;;;;25.00;65.74;99818.78;2067457;28;19909;-70
2021/07/22 03:09:21;;;;;;;;;;;;;;;25.02;65.87;99826.88;2067836;28;19921;-70
2021/07/22 03:10:22;;;;;;;;;;;;;;;25.01;65.88;99820.53;2068640;28;19960;-70
2021/07/22 03:11:23;;;;;;;;;;;;;;;25.01;65.87;99823.28;2063088;28;20199;-70
2021/07/22 03:12:23;;;;;;;;;;;;;;;25.00;65.87;99824.31;2069007;28;20232;-70
2021/07/22 03:13:23;;;;;;;;;;;;;;;25.01;65.88;99826.03;2067825;28;19982;-70
2021/07/22 03:14:24;;;;;;;;;;;;;;;25.01;65.70;99825.16;2068381;28;19909;-70
2021/07/22 03:15:24;;;;;;;;;;;;;;;25.00;65.75;99823.47;2069479;28;19917;-70
2021/07/22 03:16:24;;;;;;;;;;;;;;;25.01;65.71;99830.66;2065892;28;20007;-70
2021/07/22 03:17:25;;;;;;;;;;;;;;;25.01;65.77;99825.16;2061107;28;19913;-70
2021/07/22 03:18:25;;;;;;;;;;;;;;;25.01;65.93;99819.63;2058199;28;20250;-70
2021/07/22 03:19:25;;;;;;;;;;;;;;;25.00;65.80;99828.97;2067038;28;20031;-70
2021/07/22 03:20:26;;;;;;;;;;;;;;;25.00;65.93;99823.47;2067067;28;19909;-70
2021/07/22 03:21:26;;;;;;;;;;;;;;;25.00;65.75;99824.31;2067778;28;19960;-69
2021/07/22 03:22:27;;;;;;;;;;;;;;;24.99;65.84;99822.59;2068316;28;19929;-70
2021/07/22 03:23:27;;;;;;;;;;;;;;;25.01;65.72;99830.66;2066172;28;19925;-70
2021/07/22 03:24:28;;;;;;;;;;;;;;;25.00;65.74;99824.31;2068096;28;19917;-70
2021/07/22 03:25:28;;;;;;;;;;;;;;;25.00;65.62;99820.69;2066195;28;19935;-70
2021/07/22 03:26:28;;;;;;;;;;;;;;;25.01;65.97;99825.16;2068144;28;20467;-70
2021/07/22 03:27:29;;;;;;;;;;;;;;;25.01;65.70;99819.63;2066994;28;19930;-70
2021/07/22 03:28:29;;;;;;;;;;;;;;;24.99;65.80;99816.25;2067908;28;19917;-70
2021/07/22 03:29:29;;;;;;;;;;;;;;;25.00;65.87;99823.47;2070512;28;19917;-70
2021/07/22 03:30:29;;;;;;;;;;;;;;;25.00;65.79;99817.94;2064841;28;19924;-70
2021/07/22 03:31:30;;;;;;;;;;;;;;;25.00;65.90;99826.22;2068866;28;19917;-70
2021/07/22 03:32:30;;;;;;;;;;;;;;;25.00;65.60;99823.47;2063739;28;20292;-70
2021/07/22 03:33:31;;;;;;;;;;;;;;;25.00;65.93;99817.94;2062738;28;20004;-70
2021/07/22 03:34:31;;;;;;;;;;;;;;;25.00;65.73;99817.94;2066920;28;19913;-70
2021/07/22 03:35:31;;;;;;;;;;;;;;;25.00;65.83;99815.19;2067222;28;20044;-70
2021/07/22 03:36:31;;;;;;;;;;;;;;;25.00;65.62;99815.19;2068770;28;20413;-70
2021/07/22 03:37:32;;;;;;;;;;;;;;;24.98;65.69;99818.13;2064938;28;19921;-70
2021/07/22 03:38:32;;;;;;;;;;;;;;;24.99;65.74;99819.00;2065674;28;20345;-70
2021/07/22 03:39:32;;;;;;;;;;;;;;;24.99;65.56;99819.00;2068150;28;21358;-70
2021/07/22 03:40:33;;;;;;;;;;;;;;;24.98;65.71;99820.03;2067197;28;19921;-70
2021/07/22 03:41:33;;;;;;;;;;;;;;;24.99;65.79;99825.38;2068178;28;19957;-70
2021/07/22 03:42:34;;;;;;;;;;;;;;;24.98;65.71;99818.13;2068120;28;19916;-70
2021/07/22 03:43:34;;;;;;;;;;;;;;;24.98;65.83;99823.63;2066380;28;19932;-70
2021/07/22 03:44:37;;;;;;;;;;;;;;;24.98;65.84;99820.88;2068125;28;19917;-70
2021/07/22 03:45:38;;;;;;;;;;;;;;;24.98;65.76;99818.13;2067718;28;20272;-70
2021/07/22 03:46:38;;;;;;;;;;;;;;;24.97;65.72;99824.69;2068497;28;19970;-70
2021/07/22 03:47:39;;;;;;;;;;;;;;;24.98;65.73;99820.88;2068716;28;19958;-70
2021/07/22 03:48:39;;;;;;;;;;;;;;;24.98;65.62;99825.56;2067293;28;19956;-70
2021/07/22 03:49:39;;;;;;;;;;;;;;;24.98;65.53;99823.63;2069344;28;19987;-70
2021/07/22 03:50:39;;;;;;;;;;;;;;;24.99;65.76;99827.28;2066120;28;20548;-70
2021/07/22 03:51:40;;;;;;;;;;;;;;;24.98;65.83;99820.03;2068236;28;19956;-70
2021/07/22 03:52:40;;;;;;;;;;;;;;;24.97;65.74;99824.69;2067762;28;19913;-70
2021/07/22 03:53:40;;;;;;;;;;;;;;;24.98;65.57;99822.78;2067266;28;19913;-71
2021/07/22 03:54:40;;;;;;;;;;;;;;;24.98;65.65;99826.41;2068838;28;20026;-70
2021/07/22 03:55:41;;;;;;;;;;;;;;;24.97;65.72;99824.69;2066989;28;19921;-70
2021/07/22 03:56:41;;;;;;;;;;;;;;;24.97;65.73;99824.69;2069106;28;20006;-69
2021/07/22 03:57:42;;;;;;;;;;;;;;;24.97;65.54;99829.38;2067156;28;20008;-70
2021/07/22 03:58:42;;;;;;;;;;;;;;;24.98;65.74;99825.56;2067936;28;19921;-69
2021/07/22 03:59:42;;;;;;;;;;;;;;;24.97;65.63;99826.63;2068662;28;20277;-70
2021/07/22 04:00:42;;;;;;;;;;;;;;;24.97;65.56;99832.97;2073441;28;20535;-70
2021/07/22 04:01:43;;;;;;;;;;;;;;;24.97;65.47;99823.84;2076136;28;19943;-70
2021/07/22 04:02:43;;;;;;;;;;;;;;;24.96;65.79;99823.00;2067092;28;20383;-70
2021/07/22 04:03:43;;;;;;;;;;;;;;;24.97;65.71;99832.13;2068013;28;19916;-70
2021/07/22 04:04:44;;;;;;;;;;;;;;;24.96;65.54;99833.16;2074497;28;20482;-70
2021/07/22 04:05:44;;;;;;;;;;;;;;;24.96;65.72;99833.16;2072815;28;19909;-70
2021/07/22 04:06:44;;;;;;;;;;;;;;;24.97;65.68;99834.88;2060838;28;19923;-69
2021/07/22 04:07:44;;;;;;;;;;;;;;;24.96;65.72;99833.16;2064871;28;19944;-70
2021/07/22 04:08:45;;;;;;;;;;;;;;;24.96;65.67;99833.16;2068824;28;19910;-70
2021/07/22 04:09:45;;;;;;;;;;;;;;;24.96;65.70;99831.28;2067225;28;20475;-70
2021/07/22 04:10:45;;;;;;;;;;;;;;;24.97;65.53;99832.97;2067317;28;19947;-70
2021/07/22 04:11:46;;;;;;;;;;;;;;;24.97;65.60;99829.38;2068767;28;19909;-70
2021/07/22 04:12:46;;;;;;;;;;;;;;;24.96;65.58;99827.63;2066061;28;20502;-70
2021/07/22 04:13:46;;;;;;;;;;;;;;;24.97;65.77;99837.66;2069147;28;19982;-70
2021/07/22 04:14:47;;;;;;;;;;;;;;;24.96;65.53;99836.78;2065408;28;19918;-70
2021/07/22 04:15:47;;;;;;;;;;;;;;;24.97;65.45;99840.41;2068115;28;19917;-70
2021/07/22 04:16:47;;;;;;;;;;;;;;;24.97;65.51;99834.88;2068084;28;19917;-70
2021/07/22 04:17:51;;;;;;;;;;;;;;;24.96;65.59;99838.66;2067449;28;19917;-70
2021/07/22 04:18:51;;;;;;;;;;;;;;;24.95;65.69;99837.81;2066683;28;20550;-70
2021/07/22 04:19:51;;;;;;;;;;;;;;;24.96;65.54;99838.66;2068423;28;19971;-69
2021/07/22 04:20:52;;;;;;;;;;;;;;;24.96;65.62;99836.78;2067647;28;19921;-69
2021/07/22 04:21:52;;;;;;;;;;;;;;;24.97;65.43;99840.41;2068358;28;19989;-69
2021/07/22 04:22:56;;;;;;;;;;;;;;;24.97;65.62;99840.41;2067445;28;19928;-68
2021/07/22 04:23:57;;;;;;;;;;;;;;;24.96;65.68;99841.44;2068119;28;20560;-68
2021/07/22 04:24:57;;;;;;;;;;;;;;;24.97;65.65;99843.16;2066533;28;20433;-69
2021/07/22 04:25:57;;;;;;;;;;;;;;;24.96;65.68;99838.66;2066359;28;19931;-69
2021/07/22 04:26:57;;;;;;;;;;;;;;;24.96;65.74;99842.31;2067079;28;19913;-69
2021/07/22 04:27:58;;;;;;;;;;;;;;;24.96;65.48;99838.66;2066697;28;19906;-69
2021/07/22 04:28:58;;;;;;;;;;;;;;;24.97;65.66;99840.41;2068985;28;20013;-69
2021/07/22 04:30:00;;;;;;;;;;;;;;;24.95;65.71;99836.97;2067130;28;19910;-69
2021/07/22 04:31:01;;;;;;;;;;;;;;;24.95;65.32;99837.81;2067406;28;19929;-69
2021/07/22 04:32:01;;;;;;;;;;;;;;;24.96;65.75;99835.91;2060034;28;20424;-69
2021/07/22 04:33:01;;;;;;;;;;;;;;;24.96;65.40;99838.66;2063390;28;20039;-69
2021/07/22 04:34:02;;;;;;;;;;;;;;;24.95;65.52;99842.50;2068900;28;19923;-70
2021/07/22 04:35:03;;;;;;;;;;;;;;;24.95;65.70;99842.50;2067353;28;20350;-69
2021/07/22 04:36:03;;;;;;;;;;;;;;;24.95;65.45;99839.72;2067565;28;20021;-69
2021/07/22 04:37:05;;;;;;;;;;;;;;;24.95;65.54;99836.97;2068303;28;20418;-69
2021/07/22 04:38:05;;;;;;;;;;;;;;;24.95;65.45;99831.47;2067808;28;20490;-69
2021/07/22 04:39:06;;;;;;;;;;;;;;;24.95;65.54;99836.97;2068679;28;20378;-69
2021/07/22 04:40:06;;;;;;;;;;;;;;;24.94;65.63;99832.50;2066278;28;19917;-69
2021/07/22 04:41:07;;;;;;;;;;;;;;;24.94;65.63;99836.13;2068529;28;19940;-69
2021/07/22 04:42:07;;;;;;;;;;;;;;;24.94;65.50;99838.00;2066905;28;19921;-69
2021/07/22 04:43:09;;;;;;;;;;;;;;;24.94;65.55;99843.53;2065363;28;19929;-66
2021/07/22 04:44:09;;;;;;;;;;;;;;;24.94;65.63;99840.75;2070179;28;20493;-65
2021/07/22 04:45:10;;;;;;;;;;;;;;;24.95;65.87;99837.81;2066401;28;20428;-65
2021/07/22 04:46:10;;;;;;;;;;;;;;;24.97;65.76;99841.25;2067543;28;20423;-66
2021/07/22 04:47:11;;;;;;;;;;;;;;;24.96;65.74;99849.69;2065035;28;19917;-65
2021/07/22 04:48:11;;;;;;;;;;;;;;;24.95;65.48;99843.34;2067112;28;19956;-65
2021/07/22 04:49:12;;;;;;;;;;;;;;;24.96;65.56;99846.94;2067344;28;20170;-65
2021/07/22 04:50:12;;;;;;;;;;;;;;;24.95;65.62;99848.00;2066397;28;19975;-65
2021/07/22 04:51:13;;;;;;;;;;;;;;;24.94;65.58;99846.28;2060518;28;19952;-65
2021/07/22 04:52:13;;;;;;;;;;;;;;;24.95;65.86;99845.25;2066424;28;19916;-65
2021/07/22 04:53:13;;;;;;;;;;;;;;;24.95;65.65;99854.38;2067775;28;20815;-65
2021/07/22 04:54:13;;;;;;;;;;;;;;;24.95;65.45;99848.00;2066731;28;20577;-65
2021/07/22 04:55:14;;;;;;;;;;;;;;;24.95;65.55;99856.28;2066526;28;20486;-65
2021/07/22 04:56:14;;;;;;;;;;;;;;;24.95;65.62;99853.53;2068542;28;20395;-66
2021/07/22 04:57:14;;;;;;;;;;;;;;;24.96;65.46;99860.72;2065672;28;19917;-66
2021/07/22 04:58:15;;;;;;;;;;;;;;;24.95;65.44;99856.28;2068667;28;20443;-66
2021/07/22 04:59:15;;;;;;;;;;;;;;;24.95;65.72;99859.03;2067057;28;19909;-66
2021/07/22 05:00:15;;;;;;;;;;;;;;;24.95;65.70;99861.78;2066611;28;19949;-66
2021/07/22 05:01:16;;;;;;;;;;;;;;;24.96;65.54;99866.25;2067796;28;20308;-66
2021/07/22 05:02:16;;;;;;;;;;;;;;;24.96;65.68;99866.25;2066452;28;20019;-66
2021/07/22 05:03:17;;;;;;;;;;;;;;;24.95;65.45;99870.91;2068569;28;20326;-66
2021/07/22 05:04:20;;;;;;;;;;;;;;;24.94;65.58;99869.22;2066465;28;20340;-66
2021/07/22 05:05:20;;;;;;;;;;;;;;;24.95;65.56;99878.34;2067769;28;20416;-66
2021/07/22 05:06:20;;;;;;;;;;;;;;;24.95;65.41;99875.56;2067019;28;19917;-65
2021/07/22 05:07:21;;;;;;;;;;;;;;;24.95;65.69;99875.56;2066560;28;20841;-66
2021/07/22 05:08:21;;;;;;;;;;;;;;;24.94;65.54;99868.34;2068600;28;19923;-66
2021/07/22 05:09:21;;;;;;;;;;;;;;;24.94;65.57;99869.22;2064568;28;19925;-66
2021/07/22 05:10:21;;;;;;;;;;;;;;;24.94;65.61;99868.34;2061238;28;19952;-66
2021/07/22 05:11:22;;;;;;;;;;;;;;;24.94;65.49;99873.84;2063972;28;19918;-66
2021/07/22 05:12:22;;;;;;;;;;;;;;;24.94;65.48;99873.84;2061113;28;19929;-66
2021/07/22 05:13:22;;;;;;;;;;;;;;;24.93;65.56;99872.16;2068149;28;19937;-66
2021/07/22 05:14:23;;;;;;;;;;;;;;;24.93;65.46;99881.28;2065930;28;19921;-66
2021/07/22 05:15:23;;;;;;;;;;;;;;;24.93;65.39;99877.66;2076408;28;19917;-66